createdAt,value
2018-03-08T00:02:20.192Z,99771.52
2018-03-08T00:04:46.334Z,99766.22
2018-03-08T00:07:12.515Z,99764.37
2018-03-08T00:09:38.709Z,99762.28
2018-03-08T00:12:04.903Z,99766.63
2018-03-08T00:14:31.064Z,99755.67
2018-03-08T00:16:57.283Z,99754.81
2018-03-08T00:19:23.478Z,99758.30
2018-03-08T00:21:49.655Z,99765.73
2018-03-08T00:24:16.142Z,99767.11
2018-03-08T00:26:42.578Z,99777.59
2018-03-08T00:29:08.791Z,99775.02
2018-03-08T00:31:34.947Z,99775.47
2018-03-08T00:34:01.106Z,99776.66
2018-03-08T00:36:27.318Z,99770.59
2018-03-08T00:38:53.482Z,99775.06
2018-03-08T00:41:19.942Z,99771.42
2018-03-08T00:43:46.478Z,99770.01
2018-03-08T00:46:12.671Z,99775.25
2018-03-08T00:48:39.138Z,99782.72
2018-03-08T00:51:05.311Z,99777.11
2018-03-08T00:53:31.575Z,99775.55
2018-03-08T00:55:57.762Z,99773.05
2018-03-08T00:58:24.255Z,99776.92
2018-03-08T01:00:50.480Z,99768.08
2018-03-08T01:03:16.631Z,99771.42
2018-03-08T01:05:42.858Z,99769.23
2018-03-08T01:08:09.023Z,99764.42
2018-03-08T01:10:35.226Z,99762.63
2018-03-08T01:13:01.457Z,99766.50
2018-03-08T01:15:27.655Z,99761.86
2018-03-08T01:17:53.841Z,99767.28
2018-03-08T01:20:20.065Z,99760.59
2018-03-08T01:22:46.314Z,99767.05
2018-03-08T01:25:12.494Z,99762.47
2018-03-08T01:27:38.993Z,99762.23
2018-03-08T01:30:05.206Z,99763.55
2018-03-08T01:32:31.400Z,99765.80
2018-03-08T01:34:57.880Z,99762.40
2018-03-08T01:37:24.318Z,99759.39
2018-03-08T01:39:50.464Z,99747.48
2018-03-08T01:42:16.641Z,99745.53
2018-03-08T01:44:42.791Z,99747.80
2018-03-08T01:47:09.030Z,99745.91
2018-03-08T01:49:35.223Z,99741.70
2018-03-08T01:52:10.607Z,99747.16
2018-03-08T01:54:37.132Z,99748.41
2018-03-08T01:57:03.322Z,99747.16
2018-03-08T01:59:29.515Z,99748.57
2018-03-08T02:01:55.736Z,99749.02
2018-03-08T02:04:21.935Z,99739.95
2018-03-08T02:06:48.102Z,99737.32
2018-03-08T02:09:14.595Z,99739.89
2018-03-08T02:11:40.752Z,99743.98
2018-03-08T02:14:06.955Z,99749.51
2018-03-08T02:16:33.498Z,99745.24
2018-03-08T02:18:59.718Z,99745.73
2018-03-08T02:21:25.901Z,99744.31
2018-03-08T02:23:52.384Z,99738.16
2018-03-08T02:26:18.840Z,99743.48
2018-03-08T02:28:45.031Z,99740.48
2018-03-08T02:31:11.257Z,99741.80
2018-03-08T02:33:37.414Z,99739.73
2018-03-08T02:36:03.593Z,99737.92
2018-03-08T02:38:30.062Z,99740.48
2018-03-08T02:40:56.273Z,99739.18
2018-03-08T02:43:22.473Z,99734.48
2018-03-08T02:45:48.952Z,99741.14
2018-03-08T02:48:15.148Z,99736.72
2018-03-08T02:50:41.316Z,99738.37
2018-03-08T02:53:07.516Z,99735.41
2018-03-08T02:55:33.775Z,99736.28
2018-03-08T02:57:59.961Z,99738.95
2018-03-08T03:00:26.120Z,99743.22
2018-03-08T03:02:52.335Z,99735.36
2018-03-08T03:05:18.540Z,99739.30
2018-03-08T03:07:44.721Z,99738.96
2018-03-08T03:10:10.905Z,99736.73
2018-03-08T03:12:37.115Z,99725.86
2018-03-08T03:15:03.302Z,99727.59
2018-03-08T03:17:29.555Z,99728.09
2018-03-08T03:19:56.042Z,99724.26
2018-03-08T03:22:22.574Z,99722.41
2018-03-08T03:24:48.770Z,99721.00
2018-03-08T03:27:14.965Z,99721.48
2018-03-08T03:29:41.468Z,99727.70
2018-03-08T03:32:07.894Z,99731.97
2018-03-08T03:34:34.081Z,99734.59
2018-03-08T03:37:00.552Z,99732.95
2018-03-08T03:39:26.784Z,99732.03
2018-03-08T03:41:53.027Z,99732.73
2018-03-08T03:44:19.173Z,99732.64
2018-03-08T03:46:45.367Z,99731.77
2018-03-08T03:49:11.638Z,99738.36
2018-03-08T03:51:37.811Z,99737.00
2018-03-08T03:54:04.068Z,99736.06
2018-03-08T03:56:30.586Z,99729.13
2018-03-08T03:58:56.754Z,99732.18
2018-03-08T04:01:22.932Z,99727.38
2018-03-08T04:03:49.158Z,99728.69
2018-03-08T04:06:15.350Z,99731.75
2018-03-08T04:08:41.612Z,99737.92
2018-03-08T04:11:07.767Z,99739.30
2018-03-08T04:13:33.924Z,99741.03
2018-03-08T04:16:00.127Z,99736.23
2018-03-08T04:18:26.319Z,99736.17
2018-03-08T04:20:52.875Z,99735.69
2018-03-08T04:23:19.296Z,99736.13
2018-03-08T04:25:45.505Z,99736.23
2018-03-08T04:28:11.693Z,99736.67
2018-03-08T04:30:38.199Z,99723.08
2018-03-08T04:33:04.733Z,99731.48
2018-03-08T04:35:30.911Z,99734.44
2018-03-08T04:37:57.083Z,99732.34
2018-03-08T04:40:23.277Z,99738.91
2018-03-08T04:42:49.455Z,99728.42
2018-03-08T04:45:15.627Z,99732.84
2018-03-08T04:47:41.786Z,99731.47
2018-03-08T04:50:08.005Z,99738.42
2018-03-08T04:52:34.164Z,99740.50
2018-03-08T04:55:00.783Z,99741.27
2018-03-08T04:57:26.947Z,99736.95
2018-03-08T04:59:53.123Z,99740.45
2018-03-08T05:02:26.128Z,99743.13
2018-03-08T05:04:52.333Z,99746.38
2018-03-08T05:07:18.522Z,99748.67
2018-03-08T05:09:44.722Z,99746.45
2018-03-08T05:12:10.948Z,99749.92
2018-03-08T05:14:37.141Z,99751.73
2018-03-08T05:17:03.698Z,99751.63
2018-03-08T05:19:29.874Z,99761.14
2018-03-08T05:21:56.283Z,99755.94
2018-03-08T05:24:22.516Z,99761.30
2018-03-08T05:26:48.700Z,99762.17
2018-03-08T05:29:15.136Z,99755.22
2018-03-08T05:31:41.331Z,99759.55
2018-03-08T05:34:07.520Z,99766.47
2018-03-08T05:36:33.723Z,99762.66
2018-03-08T05:38:59.894Z,99772.05
2018-03-08T05:41:26.173Z,99770.73
2018-03-08T05:43:52.387Z,99768.59
2018-03-08T05:46:18.561Z,99777.71
2018-03-08T05:48:44.759Z,99772.97
2018-03-08T05:51:10.946Z,99776.47
2018-03-08T05:53:37.143Z,99776.08
2018-03-08T05:56:03.339Z,99784.80
2018-03-08T05:58:29.568Z,99780.45
2018-03-08T06:00:56.127Z,99788.25
2018-03-08T06:03:22.333Z,99786.08
2018-03-08T06:05:48.768Z,99795.30
2018-03-08T06:08:15.000Z,99793.65
2018-03-08T06:10:41.167Z,99799.05
2018-03-08T06:13:07.371Z,99800.21
2018-03-08T06:15:33.543Z,99801.20
2018-03-08T06:17:59.696Z,99801.36
2018-03-08T06:20:26.244Z,99809.31
2018-03-08T06:22:52.400Z,99810.47
2018-03-08T06:25:18.599Z,99811.25
2018-03-08T06:27:44.748Z,99818.09
2018-03-08T06:30:10.986Z,99818.09
2018-03-08T06:32:37.139Z,99821.52
2018-03-08T06:35:03.338Z,99818.90
2018-03-08T06:37:29.592Z,99824.69
2018-03-08T06:39:55.788Z,99824.84
2018-03-08T06:42:21.964Z,99833.91
2018-03-08T06:44:48.198Z,99830.77
2018-03-08T06:47:14.353Z,99839.70
2018-03-08T06:49:40.875Z,99843.29
2018-03-08T06:52:07.087Z,99845.19
2018-03-08T06:54:33.235Z,99848.69
2018-03-08T06:56:59.766Z,99847.86
2018-03-08T06:59:26.038Z,99850.44
2018-03-08T07:01:52.432Z,99856.16
2018-03-08T07:04:18.623Z,99863.39
2018-03-08T07:06:44.853Z,99862.16
2018-03-08T07:09:11.031Z,99861.57
2018-03-08T07:11:37.544Z,99865.80
2018-03-08T07:14:05.998Z,99872.34
2018-03-08T07:16:32.189Z,99876.63
2018-03-08T07:18:58.695Z,99882.27
2018-03-08T07:21:24.909Z,99878.93
2018-03-08T07:23:51.159Z,99882.70
2018-03-08T07:26:17.364Z,99889.93
2018-03-08T07:28:43.552Z,99889.59
2018-03-08T07:31:10.038Z,99885.33
2018-03-08T07:33:36.244Z,99888.98
2018-03-08T07:36:02.471Z,99886.49
2018-03-08T07:38:28.684Z,99886.88
2018-03-08T07:40:54.919Z,99887.80
2018-03-08T07:43:21.106Z,99882.62
2018-03-08T07:45:47.298Z,99898.40
2018-03-08T07:48:13.561Z,99899.70
2018-03-08T07:50:39.792Z,99898.44
2018-03-08T07:53:05.965Z,99901.49
2018-03-08T07:55:32.171Z,99905.81
2018-03-08T07:57:58.384Z,99899.64
2018-03-08T08:00:24.671Z,99906.93
2018-03-08T08:02:50.833Z,99903.67
2018-03-08T08:05:29.262Z,99903.20
2018-03-08T08:08:07.691Z,99909.40
2018-03-08T08:10:33.910Z,99906.00
2018-03-08T08:13:00.107Z,99910.70
2018-03-08T08:15:26.275Z,99916.87
2018-03-08T08:17:52.838Z,99916.48
2018-03-08T08:20:19.007Z,99917.75
2018-03-08T08:22:45.233Z,99918.13
2018-03-08T08:25:11.424Z,99914.20
2018-03-08T08:27:37.959Z,99916.83
2018-03-08T08:30:04.503Z,99917.71
2018-03-08T08:32:30.688Z,99917.31
2018-03-08T08:34:56.864Z,99925.23
2018-03-08T08:37:23.060Z,99923.00
2018-03-08T08:39:49.267Z,99922.91
2018-03-08T08:42:15.446Z,99928.62
2018-03-08T08:44:41.966Z,99931.69
2018-03-08T08:47:08.393Z,99928.19
2018-03-08T08:49:34.575Z,99930.77
2018-03-08T08:52:00.800Z,99932.50
2018-03-08T08:54:26.988Z,99936.30
2018-03-08T08:56:53.512Z,99933.95
2018-03-08T08:59:20.000Z,99936.92
2018-03-08T09:01:46.489Z,99942.51
2018-03-08T09:04:13.447Z,99939.05
2018-03-08T09:06:39.662Z,99949.89
2018-03-08T09:09:05.824Z,99938.56
2018-03-08T09:11:31.995Z,99947.22
2018-03-08T09:13:58.196Z,99947.59
2018-03-08T09:16:24.677Z,99945.75
2018-03-08T09:18:50.913Z,99934.44
2018-03-08T09:21:17.069Z,99951.53
2018-03-08T09:23:43.261Z,99947.75
2018-03-08T09:26:09.451Z,99944.09
2018-03-08T09:28:35.694Z,99949.69
2018-03-08T09:31:01.853Z,99952.89
2018-03-08T09:33:28.112Z,99950.23
2018-03-08T09:35:54.308Z,99954.55
2018-03-08T09:38:20.528Z,99951.48
2018-03-08T09:40:46.729Z,99952.45
2018-03-08T09:43:12.900Z,99952.84
2018-03-08T09:45:39.075Z,99953.81
2018-03-08T09:48:05.289Z,99942.94
2018-03-08T09:50:31.484Z,99953.42
2018-03-08T09:52:57.663Z,99948.37
2018-03-08T09:55:24.226Z,99954.78
2018-03-08T09:57:50.519Z,99959.98
2018-03-08T10:00:16.770Z,99947.69
2018-03-08T10:02:42.947Z,99961.77
2018-03-08T10:05:09.435Z,99960.41
2018-03-08T10:07:35.694Z,99959.05
2018-03-08T10:10:01.885Z,99950.64
2018-03-08T10:12:28.077Z,99949.09
2018-03-08T10:14:54.307Z,99951.50
2018-03-08T10:17:20.521Z,99951.63
2018-03-08T10:19:46.778Z,99955.95
2018-03-08T10:22:12.982Z,99953.78
2018-03-08T10:24:39.168Z,99947.64
2018-03-08T10:27:05.697Z,99941.27
2018-03-08T10:29:31.865Z,99936.59
2018-03-08T10:31:58.052Z,99941.35
2018-03-08T10:34:24.265Z,99937.12
2018-03-08T10:36:50.479Z,99946.75
2018-03-08T10:44:09.390Z,99942.38
2018-03-08T10:46:35.608Z,99938.55
2018-03-08T10:51:27.855Z,99948.39
2018-03-08T10:53:54.074Z,99942.17
2018-03-08T10:56:20.251Z,99944.38
2018-03-08T10:58:46.491Z,99939.61
2018-03-08T11:01:18.699Z,99939.63
2018-03-08T11:03:47.948Z,99930.81
2018-03-08T11:06:20.270Z,99933.89
2018-03-08T11:08:46.440Z,99927.14
2018-03-08T11:11:19.659Z,99932.39
2018-03-08T11:13:45.829Z,99933.16
2018-03-08T11:16:12.014Z,99930.39
2018-03-08T11:18:38.212Z,99934.38
2018-03-08T11:21:04.363Z,99941.31
2018-03-08T11:23:30.699Z,99943.28
2018-03-08T11:25:56.918Z,99930.33
2018-03-08T11:28:23.239Z,99928.64
2018-03-08T11:30:49.464Z,99930.20
2018-03-08T11:33:15.949Z,99933.37
2018-03-08T11:35:42.133Z,99934.36
2018-03-08T11:38:08.736Z,99936.83
2018-03-08T11:40:34.959Z,99930.69
2018-03-08T11:43:01.181Z,99930.70
2018-03-08T11:45:27.674Z,99919.38
2018-03-08T11:47:54.159Z,99923.52
2018-03-08T11:50:21.788Z,99916.81
2018-03-08T11:52:46.604Z,99910.08
2018-03-08T11:55:13.155Z,99907.02
2018-03-08T11:57:39.444Z,99905.32
2018-03-08T12:00:05.693Z,99907.31
2018-03-08T12:02:31.886Z,99902.26
2018-03-08T12:04:58.098Z,99902.09
2018-03-08T12:07:24.333Z,99901.20
2018-03-08T12:09:50.500Z,99900.66
2018-03-08T12:12:16.725Z,99889.95
2018-03-08T12:14:42.925Z,99889.67
2018-03-08T12:17:09.170Z,99881.17
2018-03-08T12:19:35.358Z,99881.42
2018-03-08T12:22:01.869Z,99879.55
2018-03-08T12:24:28.048Z,99872.47
2018-03-08T12:26:54.285Z,99873.55
2018-03-08T12:29:20.484Z,99872.39
2018-03-08T12:31:46.676Z,99867.45
2018-03-08T12:34:12.892Z,99871.56
2018-03-08T12:36:39.449Z,99874.53
2018-03-08T12:39:05.973Z,99868.13
2018-03-08T12:41:32.162Z,99869.67
2018-03-08T12:43:58.343Z,99868.93
2018-03-08T12:46:24.628Z,99866.14
2018-03-08T12:48:50.851Z,99865.94
2018-03-08T12:51:17.339Z,99860.48
2018-03-08T12:53:43.864Z,99863.00
2018-03-08T12:56:10.043Z,99860.80
2018-03-08T12:58:36.337Z,99852.70
2018-03-08T13:01:02.591Z,99849.11
2018-03-08T13:03:28.898Z,99855.76
2018-03-08T13:05:55.121Z,99843.92
2018-03-08T13:08:21.325Z,99840.89
2018-03-08T13:10:47.565Z,99833.67
2018-03-08T13:13:13.795Z,99831.99
2018-03-08T13:15:40.066Z,99833.84
2018-03-08T13:18:06.266Z,99823.11
2018-03-08T13:20:32.447Z,99809.95
2018-03-08T13:22:58.740Z,99810.83
2018-03-08T13:25:25.240Z,99807.98
2018-03-08T13:27:51.468Z,99799.89
2018-03-08T13:30:17.710Z,99792.75
2018-03-08T13:32:43.924Z,99801.88
2018-03-08T13:35:10.454Z,99795.74
2018-03-08T13:37:36.986Z,99789.80
2018-03-08T13:43:05.926Z,99780.23
2018-03-08T13:45:32.100Z,99784.38
2018-03-08T13:47:58.554Z,99783.45
2018-03-08T13:50:24.760Z,99778.36
2018-03-08T13:52:51.215Z,99775.80
2018-03-08T13:55:17.758Z,99757.47
2018-03-08T13:57:43.913Z,99763.26
2018-03-08T14:00:10.431Z,99756.03
2018-03-08T14:02:36.623Z,99751.77
2018-03-08T14:05:02.790Z,99748.58
2018-03-08T14:07:28.987Z,99749.45
2018-03-08T14:09:55.158Z,99747.13
2018-03-08T14:12:21.363Z,99743.86
2018-03-08T14:14:47.886Z,99732.17
2018-03-08T14:17:14.090Z,99736.51
2018-03-08T14:19:40.275Z,99732.75
2018-03-08T14:22:06.467Z,99723.43
2018-03-08T14:24:32.673Z,99726.87
2018-03-08T14:26:59.135Z,99730.08
2018-03-08T14:29:25.334Z,99725.39
2018-03-08T14:31:51.530Z,99716.86
2018-03-08T14:34:17.747Z,99714.38
2018-03-08T14:36:43.906Z,99703.61
2018-03-08T14:39:10.073Z,99703.72
2018-03-08T14:41:36.301Z,99703.72
2018-03-08T14:44:02.456Z,99696.72
2018-03-08T14:46:28.645Z,99693.70
2018-03-08T14:48:54.880Z,99689.04
2018-03-08T14:51:21.064Z,99692.59
2018-03-08T14:53:47.531Z,99685.65
2018-03-08T14:56:14.072Z,99683.53
2018-03-08T14:58:40.248Z,99680.14
2018-03-08T15:01:06.426Z,99671.14
2018-03-08T15:03:32.650Z,99671.27
2018-03-08T15:05:58.867Z,99667.47
2018-03-08T15:08:25.055Z,99666.39
2018-03-08T15:10:51.211Z,99660.89
2018-03-08T15:13:17.768Z,99659.71
2018-03-08T15:15:43.947Z,99663.89
2018-03-08T15:18:10.430Z,99659.62
2018-03-08T15:20:36.622Z,99659.30
2018-03-08T15:23:02.798Z,99663.36
2018-03-08T15:25:28.997Z,99664.31
2018-03-08T15:27:55.159Z,99663.99
2018-03-08T15:30:21.379Z,99660.19
2018-03-08T15:32:47.545Z,99663.81
2018-03-08T15:35:13.724Z,99653.92
2018-03-08T15:37:39.946Z,99656.59
2018-03-08T15:40:06.138Z,99650.11
2018-03-08T15:42:32.292Z,99648.47
2018-03-08T15:44:58.493Z,99641.47
2018-03-08T15:47:24.697Z,99641.48
2018-03-08T15:49:50.881Z,99636.39
2018-03-08T15:52:17.071Z,99637.66
2018-03-08T15:54:43.319Z,99639.78
2018-03-08T15:57:09.474Z,99641.16
2018-03-08T15:59:35.645Z,99637.80
2018-03-08T16:02:01.909Z,99638.36
2018-03-08T16:04:28.150Z,99640.59
2018-03-08T16:10:30.910Z,99643.45
2018-03-08T16:12:57.363Z,99651.84
2018-03-08T16:15:23.553Z,99656.27
2018-03-08T16:17:49.785Z,99652.45
2018-03-08T16:20:16.226Z,99653.88
2018-03-08T16:22:42.422Z,99651.39
2018-03-08T16:25:08.625Z,99663.25
2018-03-08T16:27:34.834Z,99662.88
2018-03-08T16:30:01.004Z,99655.95
2018-03-08T16:32:27.214Z,99670.05
2018-03-08T16:34:53.371Z,99665.31
2018-03-08T16:37:19.582Z,99664.93
2018-03-08T16:39:45.966Z,99665.77
2018-03-08T16:42:12.124Z,99661.48
2018-03-08T16:44:38.345Z,99665.04
2018-03-08T16:47:04.574Z,99669.05
2018-03-08T16:49:30.732Z,99655.94
2018-03-08T16:51:56.905Z,99659.05
2018-03-08T16:54:23.109Z,99659.42
2018-03-08T16:56:49.496Z,99667.25
2018-03-08T16:59:15.683Z,99664.35
2018-03-08T17:01:41.870Z,99660.11
2018-03-08T17:04:08.113Z,99656.16
2018-03-08T17:06:34.264Z,99656.66
2018-03-08T17:09:00.408Z,99653.64
2018-03-08T17:11:26.579Z,99659.84
2018-03-08T17:13:52.784Z,99658.65
2018-03-08T17:16:18.948Z,99654.78
2018-03-08T17:18:45.145Z,99656.58
2018-03-08T17:21:11.338Z,99651.00
2018-03-08T17:23:37.509Z,99654.95
2018-03-08T17:26:04.024Z,99653.31
2018-03-08T17:28:30.221Z,99647.25
2018-03-08T17:30:56.439Z,99651.28
2018-03-08T17:33:22.607Z,99647.77
2018-03-08T17:35:48.750Z,99645.13
2018-03-08T17:38:14.939Z,99643.84
2018-03-08T17:40:41.104Z,99644.31
2018-03-08T17:43:07.531Z,99647.45
2018-03-08T17:45:33.731Z,99640.89
2018-03-08T17:48:00.185Z,99642.25
2018-03-08T17:50:26.332Z,99644.94
2018-03-08T17:52:52.582Z,99643.63
2018-03-08T17:55:18.722Z,99641.13
2018-03-08T17:57:44.872Z,99643.72
2018-03-08T18:00:11.100Z,99641.72
2018-03-08T18:02:37.252Z,99638.98
2018-03-08T18:05:03.445Z,99641.55
2018-03-08T18:07:29.647Z,99643.24
2018-03-08T18:09:55.850Z,99640.19
2018-03-08T18:12:22.065Z,99640.17
2018-03-08T18:14:48.215Z,99640.98
2018-03-08T18:17:14.408Z,99639.56
2018-03-08T18:19:40.604Z,99639.67
2018-03-08T18:22:06.758Z,99641.05
2018-03-08T18:24:33.256Z,99635.67
2018-03-08T18:26:59.458Z,99633.61
2018-03-08T18:29:25.776Z,99633.23
2018-03-08T18:31:51.980Z,99632.86
2018-03-08T18:34:18.131Z,99627.61
2018-03-08T18:36:44.279Z,99621.41
2018-03-08T18:39:10.446Z,99628.42
2018-03-08T18:41:36.604Z,99635.93
2018-03-08T18:44:03.124Z,99640.75
2018-03-08T18:46:29.328Z,99639.31
2018-03-08T18:48:55.590Z,99647.98
2018-03-08T18:51:21.754Z,99651.92
2018-03-08T18:53:47.909Z,99648.43
2018-03-08T18:56:14.075Z,99638.43
2018-03-08T18:58:40.261Z,99645.48
2018-03-08T19:01:06.424Z,99636.80
2018-03-08T19:03:32.572Z,99625.80
2018-03-08T19:05:58.807Z,99614.00
2018-03-08T19:08:24.986Z,99612.36
2018-03-08T19:10:51.534Z,99620.79
2018-03-08T19:13:17.742Z,99622.16
2018-03-08T19:15:43.893Z,99631.34
2018-03-08T19:18:10.414Z,99636.48
2018-03-08T19:20:36.572Z,99631.67
2018-03-08T19:23:02.776Z,99637.73
2018-03-08T19:25:28.920Z,99643.80
2018-03-08T19:27:55.077Z,99639.05
2018-03-08T19:30:21.329Z,99638.98
2018-03-08T19:32:47.443Z,99641.10
2018-03-08T19:35:13.912Z,99632.06
2018-03-08T19:37:40.077Z,99628.66
2018-03-08T19:40:06.306Z,99638.66
2018-03-08T19:42:32.488Z,99638.23
2018-03-08T19:44:58.702Z,99639.27
2018-03-08T19:47:24.906Z,99646.66
2018-03-08T19:49:51.078Z,99642.73
2018-03-08T19:52:17.266Z,99643.23
2018-03-08T19:54:43.416Z,99638.09
2018-03-08T19:57:09.866Z,99640.77
2018-03-08T19:59:36.043Z,99632.95
2018-03-08T20:02:02.250Z,99633.45
2018-03-08T20:04:28.396Z,99634.39
2018-03-08T20:06:54.552Z,99629.20
2018-03-08T20:09:20.724Z,99634.02
2018-03-08T20:11:46.885Z,99638.83
2018-03-08T20:14:13.359Z,99623.95
2018-03-08T20:16:39.792Z,99626.91
2018-03-08T20:19:05.944Z,99627.40
2018-03-08T20:21:32.119Z,99631.00
2018-03-08T20:26:30.087Z,99644.18
2018-03-08T20:28:56.229Z,99649.64
2018-03-08T20:31:22.686Z,99651.26
2018-03-08T20:33:49.120Z,99653.45
2018-03-08T20:36:15.385Z,99643.72
2018-03-08T20:38:41.885Z,99641.03
2018-03-08T20:41:08.036Z,99645.83
2018-03-08T20:43:34.646Z,99644.09
2018-03-08T20:46:00.816Z,99638.52
2018-03-08T20:48:26.963Z,99622.79
2018-03-08T20:50:53.142Z,99627.53
2018-03-08T20:53:19.279Z,99625.66
2018-03-08T20:55:45.501Z,99628.73
2018-03-08T20:58:12.540Z,99625.29
2018-03-08T21:00:38.682Z,99630.54
2018-03-08T21:03:04.866Z,99630.17
2018-03-08T21:05:31.035Z,99629.41
2018-03-08T21:07:57.221Z,99629.02
2018-03-08T21:10:23.398Z,99629.95
2018-03-08T21:12:49.543Z,99631.27
2018-03-08T21:15:15.768Z,99622.09
2018-03-08T21:17:41.910Z,99628.58
2018-03-08T21:20:08.098Z,99622.95
2018-03-08T21:22:34.262Z,99625.08
2018-03-08T21:25:00.447Z,99625.48
2018-03-08T21:27:26.590Z,99619.35
2018-03-08T21:29:52.749Z,99615.89
2018-03-08T21:32:18.977Z,99627.16
2018-03-08T21:34:45.135Z,99629.17
2018-03-08T21:37:11.566Z,99632.66
2018-03-08T21:39:37.755Z,99639.77
2018-03-08T21:42:03.908Z,99635.89
2018-03-08T21:44:30.191Z,99637.83
2018-03-08T21:46:56.362Z,99640.02
2018-03-08T21:49:22.517Z,99634.00
2018-03-08T21:51:48.881Z,99635.33
2018-03-08T21:54:15.291Z,99628.94
2018-03-08T21:56:41.462Z,99632.31
2018-03-08T21:59:07.650Z,99636.38
2018-03-08T22:01:33.826Z,99634.67
2018-03-08T22:04:00.081Z,99632.91
2018-03-08T22:06:26.368Z,99634.27
2018-03-08T22:08:52.554Z,99632.66
2018-03-08T22:11:18.711Z,99626.53
2018-03-08T22:13:44.888Z,99629.52
2018-03-08T22:16:11.317Z,99623.45
2018-03-08T22:18:37.522Z,99627.78
2018-03-08T22:21:03.674Z,99626.58
2018-03-08T22:23:30.207Z,99631.84
2018-03-08T22:25:56.356Z,99636.51
2018-03-08T22:28:22.509Z,99628.98
2018-03-08T22:30:48.680Z,99629.45
2018-03-08T22:33:14.829Z,99622.09
2018-03-08T22:35:41.006Z,99619.52
2018-03-08T22:38:07.211Z,99624.70
2018-03-08T22:40:33.802Z,99621.97
2018-03-08T22:43:00.007Z,99618.59
2018-03-08T22:45:26.177Z,99616.42
2018-03-08T22:47:52.331Z,99618.58
2018-03-08T22:50:18.549Z,99619.78
2018-03-08T22:52:45.050Z,99624.52
2018-03-08T22:55:11.213Z,99627.14
2018-03-08T22:57:37.392Z,99623.14
2018-03-08T23:00:03.629Z,99629.64
2018-03-08T23:02:32.642Z,99625.39
2018-03-08T23:04:58.797Z,99625.83
2018-03-08T23:07:25.006Z,99623.34
2018-03-08T23:09:51.153Z,99620.64
2018-03-08T23:12:17.296Z,99619.75
2018-03-08T23:14:43.494Z,99621.66
2018-03-08T23:17:09.659Z,99619.84
2018-03-08T23:19:36.119Z,99630.83
2018-03-08T23:22:02.551Z,99627.83
2018-03-08T23:24:28.722Z,99632.20
2018-03-08T23:26:55.211Z,99628.77
2018-03-08T23:31:53.125Z,99635.98
2018-03-08T23:34:19.537Z,99634.22
2018-03-08T23:36:45.686Z,99639.47
2018-03-08T23:39:12.189Z,99645.63
2018-03-08T23:41:38.440Z,99639.47
2018-03-08T23:44:04.597Z,99637.13
2018-03-08T23:46:30.819Z,99641.14
2018-03-08T23:48:56.995Z,99642.39
2018-03-08T23:51:23.151Z,99645.00
2018-03-08T23:53:49.659Z,99641.13
2018-03-08T23:56:16.193Z,99644.77
2018-03-08T23:58:42.381Z,99644.88
